createdAt,value
2018-05-07T00:00:14.455Z,49.15
2018-05-07T00:02:40.802Z,49.19
2018-05-07T00:05:07.167Z,49.23
2018-05-07T00:07:33.507Z,49.34
2018-05-07T00:09:59.871Z,49.10
2018-05-07T00:12:26.188Z,49.27
2018-05-07T00:14:52.549Z,49.37
2018-05-07T00:17:18.887Z,49.25
2018-05-07T00:19:45.335Z,49.09
2018-05-07T00:22:11.714Z,49.22
2018-05-07T00:24:38.078Z,49.15
2018-05-07T00:27:04.417Z,48.97
2018-05-07T00:29:30.810Z,49.34
2018-05-07T00:31:57.145Z,49.12
2018-05-07T00:34:23.524Z,49.21
2018-05-07T00:36:49.850Z,49.23
2018-05-07T00:39:16.202Z,49.25
2018-05-07T00:41:42.520Z,49.03
2018-05-07T00:44:08.886Z,49.30
2018-05-07T00:46:35.273Z,49.20
2018-05-07T00:49:01.609Z,49.35
2018-05-07T00:51:27.980Z,49.48
2018-05-07T00:53:54.384Z,49.56
2018-05-07T00:56:20.740Z,49.63
2018-05-07T00:58:47.342Z,49.45
2018-05-07T01:01:13.709Z,49.36
2018-05-07T01:03:40.066Z,49.79
2018-05-07T01:06:06.403Z,49.90
2018-05-07T01:08:32.813Z,50.09
2018-05-07T01:10:59.142Z,50.28
2018-05-07T01:13:25.457Z,50.48
2018-05-07T01:15:51.778Z,50.52
2018-05-07T01:18:18.103Z,50.57
2018-05-07T01:20:44.424Z,50.82
2018-05-07T01:23:10.814Z,50.78
2018-05-07T01:25:37.137Z,51.03
2018-05-07T01:28:03.470Z,51.08
2018-05-07T01:30:29.814Z,50.91
2018-05-07T01:32:56.202Z,51.03
2018-05-07T01:35:22.543Z,50.99
2018-05-07T01:37:48.855Z,51.14
2018-05-07T01:40:15.220Z,50.97
2018-05-07T01:42:41.598Z,51.11
2018-05-07T01:45:07.910Z,51.06
2018-05-07T01:47:34.230Z,51.02
2018-05-07T01:50:00.648Z,51.01
2018-05-07T01:52:26.966Z,51.11
2018-05-07T01:54:53.284Z,51.12
2018-05-07T01:57:19.667Z,51.19
2018-05-07T01:59:46.002Z,51.13
2018-05-07T02:02:12.313Z,51.17
2018-05-07T02:04:38.649Z,50.84
2018-05-07T02:07:05.009Z,50.82
2018-05-07T02:09:31.323Z,50.71
2018-05-07T02:11:57.681Z,50.88
2018-05-07T02:14:24.000Z,50.89
2018-05-07T02:16:50.333Z,51.00
2018-05-07T02:19:16.792Z,50.98
2018-05-07T02:21:43.190Z,50.95
2018-05-07T02:24:09.539Z,50.79
2018-05-07T02:26:35.901Z,50.88
2018-05-07T02:29:02.216Z,50.80
2018-05-07T02:31:28.817Z,50.91
2018-05-07T02:33:55.028Z,50.96
2018-05-07T02:36:21.544Z,50.99
2018-05-07T02:38:47.927Z,50.93
2018-05-07T02:41:14.266Z,50.85
2018-05-07T02:43:40.737Z,50.87
2018-05-07T02:46:07.067Z,50.87
2018-05-07T02:48:33.404Z,50.93
2018-05-07T02:50:59.791Z,50.96
2018-05-07T02:53:26.165Z,50.85
2018-05-07T02:55:52.537Z,51.01
2018-05-07T02:58:18.913Z,50.99
2018-05-07T03:00:45.283Z,50.98
2018-05-07T03:03:11.648Z,50.92
2018-05-07T03:05:38.001Z,50.93
2018-05-07T03:08:04.387Z,50.84
2018-05-07T03:10:30.753Z,50.99
2018-05-07T03:12:57.113Z,50.95
2018-05-07T03:15:23.485Z,51.02
2018-05-07T03:17:49.883Z,50.93
2018-05-07T03:20:16.280Z,51.08
2018-05-07T03:22:42.637Z,50.94
2018-05-07T03:25:08.968Z,51.01
2018-05-07T03:30:07.843Z,51.07
2018-05-07T03:32:34.201Z,50.98
2018-05-07T03:35:00.541Z,51.03
2018-05-07T03:37:26.885Z,51.12
2018-05-07T03:39:53.270Z,51.04
2018-05-07T03:42:19.648Z,51.12
2018-05-07T03:44:46.060Z,50.99
2018-05-07T03:47:12.438Z,51.10
2018-05-07T03:49:38.768Z,51.21
2018-05-07T03:52:05.106Z,51.17
2018-05-07T03:54:31.468Z,51.25
2018-05-07T03:56:57.827Z,51.32
2018-05-07T03:59:24.277Z,51.33
2018-05-07T04:01:50.649Z,51.16
2018-05-07T04:04:17.019Z,51.34
2018-05-07T04:06:43.344Z,51.24
2018-05-07T04:09:09.705Z,51.32
2018-05-07T04:11:36.069Z,51.35
2018-05-07T04:14:02.432Z,51.36
2018-05-07T04:16:28.748Z,51.30
2018-05-07T04:18:55.097Z,51.38
2018-05-07T04:21:21.440Z,51.37
2018-05-07T04:23:47.810Z,51.50
2018-05-07T04:26:14.218Z,51.44
2018-05-07T04:28:40.588Z,51.45
2018-05-07T04:31:06.968Z,51.55
2018-05-07T04:33:33.360Z,51.62
2018-05-07T04:35:59.703Z,51.48
2018-05-07T04:38:26.086Z,51.54
2018-05-07T04:40:52.416Z,51.58
2018-05-07T04:43:18.816Z,51.59
2018-05-07T04:45:45.239Z,51.67
2018-05-07T04:48:11.616Z,51.58
2018-05-07T04:50:37.955Z,51.57
2018-05-07T04:53:04.311Z,51.65
2018-05-07T04:55:30.635Z,51.54
2018-05-07T04:57:57.005Z,51.68
2018-05-07T05:00:23.323Z,51.86
2018-05-07T05:02:49.683Z,51.64
2018-05-07T05:05:16.035Z,51.88
2018-05-07T05:07:42.362Z,51.82
2018-05-07T05:10:08.759Z,51.89
2018-05-07T05:12:35.076Z,51.71
2018-05-07T05:15:01.425Z,51.82
2018-05-07T05:17:27.782Z,51.84
2018-05-07T05:19:54.132Z,51.99
2018-05-07T05:22:20.492Z,51.93
2018-05-07T05:24:46.866Z,51.99
2018-05-07T05:27:13.275Z,51.92
2018-05-07T05:29:39.620Z,52.08
2018-05-07T05:32:06.006Z,52.00
2018-05-07T05:34:32.435Z,52.02
2018-05-07T05:36:58.877Z,52.14
2018-05-07T05:39:25.285Z,52.04
2018-05-07T05:41:51.627Z,52.29
2018-05-07T05:44:17.990Z,52.14
2018-05-07T05:46:44.390Z,52.07
2018-05-07T05:49:10.757Z,52.14
2018-05-07T05:51:37.130Z,52.14
2018-05-07T05:54:03.459Z,52.35
2018-05-07T05:56:29.886Z,52.31
2018-05-07T05:58:56.163Z,52.24
2018-05-07T06:01:22.567Z,52.28
2018-05-07T06:03:48.944Z,52.31
2018-05-07T06:06:15.367Z,52.50
2018-05-07T06:08:41.699Z,52.52
2018-05-07T06:11:08.060Z,52.46
2018-05-07T06:13:34.391Z,52.57
2018-05-07T06:16:00.774Z,52.39
2018-05-07T06:18:27.116Z,52.65
2018-05-07T06:20:53.597Z,52.53
2018-05-07T06:23:19.934Z,52.54
2018-05-07T06:25:46.364Z,52.46
2018-05-07T06:28:12.716Z,52.45
2018-05-07T06:30:39.057Z,52.52
2018-05-07T06:33:05.528Z,52.51
2018-05-07T06:35:31.881Z,52.60
2018-05-07T06:37:58.244Z,52.52
2018-05-07T06:40:24.656Z,52.47
2018-05-07T06:42:50.976Z,52.40
2018-05-07T06:45:17.410Z,52.42
2018-05-07T06:47:43.764Z,52.50
2018-05-07T06:50:10.241Z,52.43
2018-05-07T06:52:36.628Z,52.39
2018-05-07T06:55:03.012Z,52.59
2018-05-07T06:57:29.384Z,52.64
2018-05-07T06:59:55.741Z,52.47
2018-05-07T07:02:22.149Z,52.45
2018-05-07T07:04:48.468Z,52.38
2018-05-07T07:07:14.813Z,52.38
2018-05-07T07:09:41.229Z,52.32
2018-05-07T07:12:07.585Z,52.56
2018-05-07T07:14:33.968Z,52.41
2018-05-07T07:17:00.396Z,52.23
2018-05-07T07:19:26.737Z,52.01
2018-05-07T07:21:53.223Z,52.08
2018-05-07T07:24:19.498Z,51.89
2018-05-07T07:26:45.863Z,51.90
2018-05-07T07:29:12.201Z,51.84
2018-05-07T07:31:38.592Z,51.91
2018-05-07T07:34:05.000Z,51.67
2018-05-07T07:36:31.308Z,51.77
2018-05-07T07:38:57.636Z,51.58
2018-05-07T07:41:24.021Z,51.31
2018-05-07T07:43:50.342Z,51.29
2018-05-07T07:46:16.794Z,51.27
2018-05-07T07:48:43.153Z,51.25
2018-05-07T07:51:09.505Z,51.20
2018-05-07T07:53:35.932Z,51.16
2018-05-07T07:56:02.189Z,51.15
2018-05-07T07:58:28.610Z,50.91
2018-05-07T08:00:54.944Z,50.92
2018-05-07T08:03:21.286Z,50.85
2018-05-07T08:05:47.646Z,50.81
2018-05-07T08:08:13.965Z,50.67
2018-05-07T08:10:40.354Z,50.69
2018-05-07T08:13:06.675Z,50.69
2018-05-07T08:15:33.038Z,50.53
2018-05-07T08:17:59.417Z,50.59
2018-05-07T08:20:26.752Z,50.45
2018-05-07T08:22:53.112Z,50.27
2018-05-07T08:25:19.541Z,50.40
2018-05-07T08:27:45.864Z,50.30
2018-05-07T08:30:12.189Z,50.13
2018-05-07T08:32:38.587Z,50.11
2018-05-07T08:35:04.908Z,50.03
2018-05-07T08:37:31.257Z,49.97
2018-05-07T08:39:57.621Z,50.02
2018-05-07T08:42:24.057Z,49.92
2018-05-07T08:44:50.469Z,49.82
2018-05-07T08:47:16.791Z,49.69
2018-05-07T08:49:43.173Z,49.55
2018-05-07T08:52:09.521Z,49.56
2018-05-07T08:54:35.844Z,49.55
2018-05-07T08:57:02.187Z,49.58
2018-05-07T08:59:28.540Z,49.45
2018-05-07T09:01:54.847Z,49.39
2018-05-07T09:04:21.235Z,49.19
2018-05-07T09:06:47.593Z,49.16
2018-05-07T09:09:13.976Z,49.19
2018-05-07T09:11:40.349Z,49.14
2018-05-07T09:14:06.731Z,49.07
2018-05-07T09:16:33.123Z,49.03
2018-05-07T09:18:59.446Z,48.92
2018-05-07T09:21:25.808Z,48.86
2018-05-07T09:23:52.169Z,48.83
2018-05-07T09:26:18.495Z,48.74
2018-05-07T09:28:44.827Z,48.45
2018-05-07T09:31:11.204Z,48.56
2018-05-07T09:33:37.598Z,48.42
2018-05-07T09:36:03.934Z,48.37
2018-05-07T09:38:30.298Z,48.34
2018-05-07T09:40:57.660Z,48.39
2018-05-07T09:43:24.069Z,48.33
2018-05-07T09:45:50.439Z,48.18
2018-05-07T09:48:16.837Z,48.21
2018-05-07T09:50:43.224Z,48.24
2018-05-07T09:53:09.589Z,48.30
2018-05-07T09:55:36.077Z,48.30
2018-05-07T09:58:02.369Z,48.20
2018-05-07T10:00:28.694Z,48.24
2018-05-07T10:02:55.050Z,48.12
2018-05-07T10:05:21.401Z,48.11
2018-05-07T10:07:47.721Z,48.06
2018-05-07T10:10:14.066Z,48.24
2018-05-07T10:12:40.385Z,48.09
2018-05-07T10:15:06.750Z,48.27
2018-05-07T10:17:33.114Z,48.10
2018-05-07T10:19:59.500Z,48.12
2018-05-07T10:22:25.861Z,47.91
2018-05-07T10:24:52.226Z,48.03
2018-05-07T10:27:18.579Z,47.90
2018-05-07T10:29:44.979Z,48.02
2018-05-07T10:32:11.331Z,47.95
2018-05-07T10:34:37.721Z,47.92
2018-05-07T10:37:04.042Z,47.94
2018-05-07T10:39:30.373Z,48.07
2018-05-07T10:41:56.697Z,47.77
2018-05-07T10:44:23.013Z,47.86
2018-05-07T10:46:49.334Z,47.81
2018-05-07T10:49:15.751Z,47.67
2018-05-07T10:51:42.036Z,47.69
2018-05-07T10:54:08.413Z,47.66
2018-05-07T10:56:34.782Z,48.03
2018-05-07T10:59:01.109Z,47.75
2018-05-07T11:01:27.474Z,47.84
2018-05-07T11:03:53.828Z,47.81
2018-05-07T11:06:20.204Z,47.62
2018-05-07T11:08:46.525Z,47.74
2018-05-07T11:11:12.856Z,47.66
2018-05-07T11:13:39.259Z,47.62
2018-05-07T11:16:05.605Z,47.76
2018-05-07T11:18:31.950Z,47.68
2018-05-07T11:20:58.289Z,47.66
2018-05-07T11:23:24.638Z,47.69
2018-05-07T11:25:50.986Z,47.47
2018-05-07T11:28:17.309Z,47.39
2018-05-07T11:30:43.645Z,47.68
2018-05-07T11:33:10.054Z,47.44
2018-05-07T11:35:36.368Z,47.78
2018-05-07T11:38:02.752Z,47.53
2018-05-07T11:40:29.125Z,47.85
2018-05-07T11:42:55.448Z,47.70
2018-05-07T11:45:21.815Z,47.56
2018-05-07T11:47:48.143Z,47.64
2018-05-07T11:50:14.455Z,47.58
2018-05-07T11:52:40.817Z,47.49
2018-05-07T11:55:07.141Z,47.61
2018-05-07T11:57:33.473Z,47.45
2018-05-07T11:59:59.805Z,47.50
2018-05-07T12:02:26.203Z,47.60
2018-05-07T12:04:52.512Z,47.51
2018-05-07T12:07:18.823Z,47.41
2018-05-07T12:09:45.146Z,47.52
2018-05-07T12:12:11.482Z,47.40
2018-05-07T12:14:37.798Z,47.46
2018-05-07T12:17:04.179Z,47.44
2018-05-07T12:19:30.509Z,47.64
2018-05-07T12:21:56.868Z,47.39
2018-05-07T12:24:23.184Z,47.42
2018-05-07T12:26:49.557Z,47.39
2018-05-07T12:29:15.872Z,47.31
2018-05-07T12:31:42.376Z,47.42
2018-05-07T12:34:08.581Z,47.15
2018-05-07T12:36:34.964Z,47.15
2018-05-07T12:39:01.286Z,47.09
2018-05-07T12:41:27.631Z,47.06
2018-05-07T12:43:53.956Z,47.14
2018-05-07T12:46:20.320Z,47.08
2018-05-07T12:48:46.629Z,47.14
2018-05-07T12:51:12.936Z,46.82
2018-05-07T12:53:39.299Z,47.06
2018-05-07T12:56:05.616Z,47.02
2018-05-07T12:58:32.016Z,46.89
2018-05-07T13:00:58.336Z,47.08
2018-05-07T13:03:24.665Z,46.94
2018-05-07T13:05:51.023Z,46.92
2018-05-07T13:08:17.388Z,46.88
2018-05-07T13:10:43.702Z,46.90
2018-05-07T13:13:10.019Z,46.89
2018-05-07T13:15:36.347Z,46.67
2018-05-07T13:18:02.820Z,46.71
2018-05-07T13:20:29.160Z,46.60
2018-05-07T13:22:55.485Z,46.78
2018-05-07T13:25:21.804Z,46.64
2018-05-07T13:27:48.154Z,46.66
2018-05-07T13:30:14.508Z,46.81
2018-05-07T13:32:40.817Z,46.57
2018-05-07T13:35:07.170Z,46.68
2018-05-07T13:37:33.528Z,46.62
2018-05-07T13:39:59.884Z,46.44
2018-05-07T13:42:26.209Z,46.44
2018-05-07T13:44:52.573Z,46.50
2018-05-07T13:47:18.918Z,46.65
2018-05-07T13:49:45.294Z,46.62
2018-05-07T13:52:11.667Z,46.73
2018-05-07T13:54:38.025Z,46.64
2018-05-07T13:57:04.352Z,46.70
2018-05-07T13:59:30.714Z,46.71
2018-05-07T14:01:57.036Z,46.72
2018-05-07T14:04:23.384Z,46.75
2018-05-07T14:06:49.741Z,46.86
2018-05-07T14:09:16.091Z,46.68
2018-05-07T14:11:42.396Z,46.76
2018-05-07T14:14:08.747Z,46.72
2018-05-07T14:16:35.093Z,47.02
2018-05-07T14:19:01.410Z,46.96
2018-05-07T14:21:27.725Z,46.89
2018-05-07T14:23:54.100Z,46.82
2018-05-07T14:26:20.491Z,46.95
2018-05-07T14:28:46.799Z,46.88
2018-05-07T14:31:13.165Z,47.02
2018-05-07T14:33:39.496Z,46.77
2018-05-07T14:36:05.861Z,46.79
2018-05-07T14:38:32.175Z,46.94
2018-05-07T14:40:58.499Z,47.00
2018-05-07T14:43:24.814Z,46.92
2018-05-07T14:45:51.144Z,46.92
2018-05-07T14:48:17.501Z,46.81
2018-05-07T14:50:43.816Z,46.83
2018-05-07T14:53:10.144Z,46.69
2018-05-07T14:55:36.459Z,46.77
2018-05-07T14:58:02.851Z,46.83
2018-05-07T15:00:29.181Z,46.80
2018-05-07T15:02:55.528Z,46.76
2018-05-07T15:05:21.840Z,46.75
2018-05-07T15:07:48.189Z,46.59
2018-05-07T15:10:14.508Z,46.72
2018-05-07T15:12:40.819Z,46.59
2018-05-07T15:15:07.172Z,46.67
2018-05-07T15:17:33.502Z,46.75
2018-05-07T15:19:59.834Z,46.79
2018-05-07T15:22:26.147Z,46.99
2018-05-07T15:24:52.519Z,46.76
2018-05-07T15:27:18.834Z,46.65
2018-05-07T15:29:45.216Z,46.60
2018-05-07T15:32:11.558Z,46.76
2018-05-07T15:34:37.867Z,46.86
2018-05-07T15:37:04.208Z,46.76
2018-05-07T15:39:30.555Z,46.80
2018-05-07T15:41:56.908Z,46.87
2018-05-07T15:44:23.218Z,46.80
2018-05-07T15:46:49.623Z,46.79
2018-05-07T15:49:15.988Z,46.76
2018-05-07T15:51:42.321Z,46.83
2018-05-07T15:54:08.647Z,46.99
2018-05-07T15:56:35.020Z,46.92
2018-05-07T15:59:01.335Z,46.91
2018-05-07T16:01:27.670Z,47.02
2018-05-07T16:03:54.040Z,47.11
2018-05-07T16:06:20.451Z,47.10
2018-05-07T16:08:46.801Z,47.26
2018-05-07T16:11:13.127Z,47.25
2018-05-07T16:13:39.448Z,47.32
2018-05-07T16:16:05.823Z,47.15
2018-05-07T16:18:32.178Z,47.24
2018-05-07T16:20:58.501Z,47.29
2018-05-07T16:23:24.837Z,47.26
2018-05-07T16:25:51.164Z,47.13
2018-05-07T16:28:17.598Z,47.34
2018-05-07T16:30:43.946Z,47.25
2018-05-07T16:33:10.274Z,47.26
2018-05-07T16:35:36.694Z,47.10
2018-05-07T16:38:03.010Z,47.12
2018-05-07T16:40:29.323Z,47.29
2018-05-07T16:42:55.680Z,47.16
2018-05-07T16:45:22.011Z,47.27
2018-05-07T16:47:48.328Z,47.14
2018-05-07T16:50:14.710Z,47.17
2018-05-07T16:52:41.067Z,47.21
2018-05-07T16:55:07.399Z,47.06
2018-05-07T16:57:33.725Z,47.23
2018-05-07T17:00:00.078Z,47.09
2018-05-07T17:02:26.398Z,47.10
2018-05-07T17:04:52.718Z,47.02
2018-05-07T17:07:19.040Z,47.00
2018-05-07T17:09:45.432Z,46.94
2018-05-07T17:12:11.764Z,46.88
2018-05-07T17:14:38.119Z,46.85
2018-05-07T17:17:04.430Z,46.69
2018-05-07T17:19:30.770Z,46.65
2018-05-07T17:21:57.113Z,46.70
2018-05-07T17:24:23.448Z,46.72
2018-05-07T17:26:49.843Z,46.68
2018-05-07T17:29:16.201Z,46.65
2018-05-07T17:31:42.532Z,46.66
2018-05-07T17:34:08.872Z,46.65
2018-05-07T17:36:35.193Z,46.62
2018-05-07T17:39:01.512Z,46.59
2018-05-07T17:41:27.938Z,46.44
2018-05-07T17:43:54.271Z,46.46
2018-05-07T17:46:20.588Z,46.37
2018-05-07T17:48:46.932Z,46.35
2018-05-07T17:51:13.256Z,46.26
2018-05-07T17:53:39.600Z,46.25
2018-05-07T17:56:05.946Z,46.25
2018-05-07T17:58:32.283Z,46.31
2018-05-07T18:00:58.614Z,46.17
2018-05-07T18:03:24.931Z,46.18
2018-05-07T18:05:51.263Z,46.17
2018-05-07T18:08:17.623Z,46.22
2018-05-07T18:10:43.967Z,46.22
2018-05-07T18:13:10.292Z,46.08
2018-05-07T18:15:36.616Z,46.13
2018-05-07T18:18:02.941Z,46.08
2018-05-07T18:20:29.280Z,46.06
2018-05-07T18:22:55.599Z,46.04
2018-05-07T18:25:21.939Z,46.13
2018-05-07T18:27:48.286Z,46.14
2018-05-07T18:30:14.620Z,45.99
2018-05-07T18:32:41.117Z,46.01
2018-05-07T18:35:07.303Z,46.04
2018-05-07T18:37:33.652Z,46.14
2018-05-07T18:39:59.963Z,46.03
2018-05-07T18:42:26.316Z,46.05
2018-05-07T18:44:52.661Z,45.94
2018-05-07T18:47:18.976Z,46.06
2018-05-07T18:49:45.308Z,46.07
2018-05-07T18:52:11.707Z,46.05
2018-05-07T18:54:38.004Z,46.11
2018-05-07T18:57:04.317Z,46.09
2018-05-07T18:59:30.633Z,46.19
2018-05-07T19:01:56.954Z,46.07
2018-05-07T19:04:23.310Z,46.22
2018-05-07T19:06:49.656Z,46.14
2018-05-07T19:09:16.047Z,46.28
2018-05-07T19:11:42.376Z,46.27
2018-05-07T19:14:08.703Z,46.17
2018-05-07T19:16:35.012Z,46.26
2018-05-07T19:19:01.330Z,46.37
2018-05-07T19:21:27.660Z,46.34
2018-05-07T19:23:53.976Z,46.39
2018-05-07T19:26:20.320Z,46.33
2018-05-07T19:28:46.673Z,46.34
2018-05-07T19:31:12.984Z,46.32
2018-05-07T19:33:39.361Z,46.43
2018-05-07T19:36:05.690Z,46.49
2018-05-07T19:38:32.023Z,46.43
2018-05-07T19:40:58.367Z,46.55
2018-05-07T19:45:56.993Z,46.68
2018-05-07T19:48:23.387Z,46.64
2018-05-07T19:50:49.663Z,46.62
2018-05-07T19:53:16.129Z,46.66
2018-05-07T19:55:42.491Z,46.71
2018-05-07T19:58:08.780Z,46.59
2018-05-07T20:00:35.118Z,46.66
2018-05-07T20:03:01.448Z,46.67
2018-05-07T20:05:27.809Z,46.74
2018-05-07T20:07:54.170Z,46.76
2018-05-07T20:10:20.483Z,46.81
2018-05-07T20:12:46.837Z,46.81
2018-05-07T20:15:13.185Z,46.74
2018-05-07T20:17:39.496Z,46.83
2018-05-07T20:20:05.849Z,46.92
2018-05-07T20:22:32.157Z,46.74
2018-05-07T20:24:58.476Z,46.76
2018-05-07T20:27:24.804Z,46.89
2018-05-07T20:29:51.181Z,46.88
2018-05-07T20:32:17.515Z,46.75
2018-05-07T20:34:43.869Z,46.82
2018-05-07T20:37:10.254Z,46.95
2018-05-07T20:39:36.600Z,46.89
2018-05-07T20:42:02.964Z,46.89
2018-05-07T20:44:29.289Z,46.88
2018-05-07T20:46:55.617Z,46.96
2018-05-07T20:49:21.964Z,46.86
2018-05-07T20:51:48.356Z,46.92
2018-05-07T20:54:14.664Z,46.89
2018-05-07T20:56:41.033Z,46.99
2018-05-07T20:59:07.380Z,46.94
2018-05-07T21:01:33.724Z,47.02
2018-05-07T21:04:00.045Z,46.93
2018-05-07T21:06:26.372Z,46.89
2018-05-07T21:08:52.796Z,46.84
2018-05-07T21:11:19.124Z,47.00
2018-05-07T21:13:45.515Z,46.84
2018-05-07T21:16:11.850Z,46.87
2018-05-07T21:18:38.219Z,47.11
2018-05-07T21:21:04.533Z,46.77
2018-05-07T21:23:30.852Z,46.82
2018-05-07T21:25:57.179Z,46.89
2018-05-07T21:28:23.516Z,47.08
2018-05-07T21:30:49.926Z,46.96
2018-05-07T21:33:16.248Z,46.98
2018-05-07T21:35:42.591Z,47.28
2018-05-07T21:38:08.917Z,47.10
2018-05-07T21:40:35.236Z,47.08
2018-05-07T21:43:01.558Z,47.22
2018-05-07T21:45:27.886Z,46.91
2018-05-07T21:47:54.271Z,46.99
2018-05-07T21:50:20.621Z,47.21
2018-05-07T21:52:46.949Z,47.02
2018-05-07T21:55:13.269Z,47.10
2018-05-07T21:57:39.590Z,46.93
2018-05-07T22:00:05.919Z,46.97
2018-05-07T22:02:32.255Z,47.00
2018-05-07T22:04:58.576Z,46.93
2018-05-07T22:07:24.900Z,46.90
2018-05-07T22:09:51.236Z,46.94
2018-05-07T22:12:17.594Z,47.00
2018-05-07T22:14:43.895Z,46.98
2018-05-07T22:17:10.213Z,47.12
2018-05-07T22:19:36.525Z,46.97
2018-05-07T22:22:02.852Z,46.96
2018-05-07T22:24:29.174Z,47.14
2018-05-07T22:26:55.496Z,46.89
2018-05-07T22:29:21.833Z,47.06
2018-05-07T22:31:48.213Z,47.12
2018-05-07T22:34:14.578Z,47.08
2018-05-07T22:36:40.905Z,47.05
2018-05-07T22:39:07.273Z,47.19
2018-05-07T22:41:33.676Z,47.08
2018-05-07T22:43:59.992Z,47.13
2018-05-07T22:46:26.347Z,47.21
2018-05-07T22:48:52.715Z,47.25
2018-05-07T22:51:19.025Z,47.07
2018-05-07T22:53:45.384Z,47.27
2018-05-07T22:56:11.744Z,47.16
2018-05-07T22:58:38.062Z,47.25
2018-05-07T23:01:04.423Z,47.05
2018-05-07T23:03:30.759Z,47.20
2018-05-07T23:05:57.125Z,46.98
2018-05-07T23:08:23.452Z,47.17
2018-05-07T23:10:49.846Z,47.08
2018-05-07T23:13:16.173Z,47.08
2018-05-07T23:15:42.520Z,46.97
2018-05-07T23:18:08.833Z,47.09
2018-05-07T23:20:35.228Z,46.92
2018-05-07T23:23:01.549Z,47.02
2018-05-07T23:25:27.917Z,46.96
2018-05-07T23:27:54.241Z,46.89
2018-05-07T23:30:20.606Z,46.98
2018-05-07T23:32:46.916Z,47.05
2018-05-07T23:35:13.305Z,47.08
2018-05-07T23:37:39.629Z,47.04
2018-05-07T23:40:05.954Z,47.09
2018-05-07T23:42:32.303Z,46.99
2018-05-07T23:44:58.711Z,46.79
2018-05-07T23:47:25.020Z,47.11
2018-05-07T23:49:51.376Z,47.04
2018-05-07T23:52:17.692Z,46.99
2018-05-07T23:54:44.081Z,47.02
2018-05-07T23:57:10.403Z,46.95
2018-05-07T23:59:36.714Z,47.04
